sensor_id;sensor_type;location;lat;lon;timestamp;temperature;humidity
66831;DHT22;53739;44.224;22.528;2023-03-13T00:01:52;128.00;2252.80
66831;DHT22;53739;44.224;22.528;2023-03-13T00:04:18;128.00;2252.80
66831;DHT22;53739;44.224;22.528;2023-03-13T00:06:44;128.10;2252.80
66831;DHT22;53739;44.224;22.528;2023-03-13T00:09:11;128.10;2252.80
66831;DHT22;53739;44.224;22.528;2023-03-13T00:11:38;128.20;2252.80
66831;DHT22;53739;44.224;22.528;2023-03-13T00:14:05;128.20;2252.80
66831;DHT22;53739;44.224;22.528;2023-03-13T00:16:31;128.30;2252.80
66831;DHT22;53739;44.224;22.528;2023-03-13T00:19:00;128.30;2252.80
66831;DHT22;53739;44.224;22.528;2023-03-13T00:21:27;128.20;2252.80
66831;DHT22;53739;44.224;22.528;2023-03-13T00:23:54;103.20;2227.20
66831;DHT22;53739;44.224;22.528;2023-03-13T00:26:22;103.20;2227.20
66831;DHT22;53739;44.224;22.528;2023-03-13T00:28:49;103.10;2227.20
66831;DHT22;53739;44.224;22.528;2023-03-13T00:31:27;103.10;2227.20
66831;DHT22;53739;44.224;22.528;2023-03-13T00:33:56;103.10;2227.20
66831;DHT22;53739;44.224;22.528;2023-03-13T00:36:25;103.00;2227.20
66831;DHT22;53739;44.224;22.528;2023-03-13T00:38:53;102.80;2227.20
66831;DHT22;53739;44.224;22.528;2023-03-13T00:41:25;102.80;2227.20
66831;DHT22;53739;44.224;22.528;2023-03-13T00:43:51;102.80;2227.20
66831;DHT22;53739;44.224;22.528;2023-03-13T00:46:20;102.60;2227.20
66831;DHT22;53739;44.224;22.528;2023-03-13T00:48:46;102.60;2227.20
66831;DHT22;53739;44.224;22.528;2023-03-13T00:51:13;102.60;2227.20
66831;DHT22;53739;44.224;22.528;2023-03-13T00:53:39;102.60;2227.20
66831;DHT22;53739;44.224;22.528;2023-03-13T00:56:07;102.50;2227.20
66831;DHT22;53739;44.224;22.528;2023-03-13T00:58:36;77.60;2227.20
66831;DHT22;53739;44.224;22.528;2023-03-13T01:01:17;77.50;2227.20
66831;DHT22;53739;44.224;22.528;2023-03-13T01:03:45;77.40;2227.20
66831;DHT22;53739;44.224;22.528;2023-03-13T01:06:14;77.40;2227.20
66831;DHT22;53739;44.224;22.528;2023-03-13T01:08:41;77.50;2227.20
66831;DHT22;53739;44.224;22.528;2023-03-13T01:11:09;77.40;2227.20
66831;DHT22;53739;44.224;22.528;2023-03-13T01:13:39;77.30;2227.20
66831;DHT22;53739;44.224;22.528;2023-03-13T01:16:18;77.20;2227.20
66831;DHT22;53739;44.224;22.528;2023-03-13T01:18:47;77.20;2227.20
66831;DHT22;53739;44.224;22.528;2023-03-13T01:21:14;77.10;2227.20
66831;DHT22;53739;44.224;22.528;2023-03-13T01:23:40;77.10;2227.20
66831;DHT22;53739;44.224;22.528;2023-03-13T01:26:07;77.10;2227.20
66831;DHT22;53739;44.224;22.528;2023-03-13T01:28:34;77.10;2227.20
66831;DHT22;53739;44.224;22.528;2023-03-13T01:31:01;77.10;2227.20
66831;DHT22;53739;44.224;22.528;2023-03-13T01:33:34;77.20;2227.20
66831;DHT22;53739;44.224;22.528;2023-03-13T01:36:01;77.10;2227.20
66831;DHT22;53739;44.224;22.528;2023-03-13T01:38:27;77.00;2227.20
66831;DHT22;53739;44.224;22.528;2023-03-13T01:40:52;76.90;2227.20
66831;DHT22;53739;44.224;22.528;2023-03-13T01:43:29;76.90;2227.20
66831;DHT22;53739;44.224;22.528;2023-03-13T01:46:02;76.90;2227.20
66831;DHT22;53739;44.224;22.528;2023-03-13T01:51:54;77.00;2227.20
66831;DHT22;53739;44.224;22.528;2023-03-13T01:56:59;77.00;2227.20
66831;DHT22;53739;44.224;22.528;2023-03-13T01:59:29;77.00;2227.20
66831;DHT22;53739;44.224;22.528;2023-03-13T02:01:59;77.00;2227.20
66831;DHT22;53739;44.224;22.528;2023-03-13T02:04:29;77.00;2227.20
66831;DHT22;53739;44.224;22.528;2023-03-13T02:06:59;77.00;2227.20
66831;DHT22;53739;44.224;22.528;2023-03-13T02:09:27;77.00;2227.20
66831;DHT22;53739;44.224;22.528;2023-03-13T02:12:06;77.10;2227.20
66831;DHT22;53739;44.224;22.528;2023-03-13T02:14:35;77.10;2227.20
66831;DHT22;53739;44.224;22.528;2023-03-13T02:17:02;77.10;2227.20
66831;DHT22;53739;44.224;22.528;2023-03-13T02:19:44;77.10;2227.20
66831;DHT22;53739;44.224;22.528;2023-03-13T02:22:26;77.10;2227.20
66831;DHT22;53739;44.224;22.528;2023-03-13T02:27:37;77.00;2227.20
66831;DHT22;53739;44.224;22.528;2023-03-13T02:30:06;77.00;2227.20
66831;DHT22;53739;44.224;22.528;2023-03-13T02:32:33;76.90;2227.20
66831;DHT22;53739;44.224;22.528;2023-03-13T02:35:07;76.90;2227.20
66831;DHT22;53739;44.224;22.528;2023-03-13T02:37:33;76.90;2227.20
66831;DHT22;53739;44.224;22.528;2023-03-13T02:40:03;77.00;2227.20
66831;DHT22;53739;44.224;22.528;2023-03-13T02:42:30;76.90;2227.20
66831;DHT22;53739;44.224;22.528;2023-03-13T02:44:56;76.80;1920.00
66831;DHT22;53739;44.224;22.528;2023-03-13T02:47:23;76.80;6476.80
66831;DHT22;53739;44.224;22.528;2023-03-13T02:49:49;52.00;6476.80
66831;DHT22;53739;44.224;22.528;2023-03-13T02:52:22;52.10;6476.80
66831;DHT22;53739;44.224;22.528;2023-03-13T02:54:54;76.80;6476.80
66831;DHT22;53739;44.224;22.528;2023-03-13T02:57:21;52.10;486.40
66831;DHT22;53739;44.224;22.528;2023-03-13T02:59:47;76.80;2099.20
66831;DHT22;53739;44.224;22.528;2023-03-13T03:02:13;76.80;1356.80
66831;DHT22;53739;44.224;22.528;2023-03-13T03:04:38;76.80;6476.80
66831;DHT22;53739;44.224;22.528;2023-03-13T03:07:04;52.10;6476.80
66831;DHT22;53739;44.224;22.528;2023-03-13T03:09:30;52.10;6476.80
66831;DHT22;53739;44.224;22.528;2023-03-13T03:11:55;52.00;6476.80
66831;DHT22;53739;44.224;22.528;2023-03-13T03:14:21;52.10;6476.80
66831;DHT22;53739;44.224;22.528;2023-03-13T03:16:47;52.10;6476.80
66831;DHT22;53739;44.224;22.528;2023-03-13T03:19:13;52.00;6476.80
66831;DHT22;53739;44.224;22.528;2023-03-13T03:21:38;52.00;6476.80
66831;DHT22;53739;44.224;22.528;2023-03-13T03:24:04;52.00;6476.80
66831;DHT22;53739;44.224;22.528;2023-03-13T03:26:30;52.00;6476.80
66831;DHT22;53739;44.224;22.528;2023-03-13T03:28:56;51.90;6476.80
66831;DHT22;53739;44.224;22.528;2023-03-13T03:31:22;52.00;6476.80
66831;DHT22;53739;44.224;22.528;2023-03-13T03:33:48;52.00;6476.80
66831;DHT22;53739;44.224;22.528;2023-03-13T03:36:17;51.90;6476.80
66831;DHT22;53739;44.224;22.528;2023-03-13T03:38:43;51.90;6476.80
66831;DHT22;53739;44.224;22.528;2023-03-13T03:41:11;52.00;6476.80
66831;DHT22;53739;44.224;22.528;2023-03-13T03:43:37;52.00;6476.80
66831;DHT22;53739;44.224;22.528;2023-03-13T03:46:03;52.10;6476.80
66831;DHT22;53739;44.224;22.528;2023-03-13T03:48:28;52.00;6476.80
66831;DHT22;53739;44.224;22.528;2023-03-13T03:50:54;52.00;6476.80
66831;DHT22;53739;44.224;22.528;2023-03-13T03:53:20;52.00;6476.80
66831;DHT22;53739;44.224;22.528;2023-03-13T03:55:46;52.00;6476.80
66831;DHT22;53739;44.224;22.528;2023-03-13T03:58:12;52.00;6476.80
66831;DHT22;53739;44.224;22.528;2023-03-13T04:00:38;52.00;6476.80
66831;DHT22;53739;44.224;22.528;2023-03-13T04:03:03;51.90;6476.80
66831;DHT22;53739;44.224;22.528;2023-03-13T04:05:29;51.70;6476.80
66831;DHT22;53739;44.224;22.528;2023-03-13T04:07:55;51.80;6476.80
66831;DHT22;53739;44.224;22.528;2023-03-13T04:10:21;51.90;6476.80
66831;DHT22;53739;44.224;22.528;2023-03-13T04:12:47;51.90;6476.80
66831;DHT22;53739;44.224;22.528;2023-03-13T04:15:12;52.00;6476.80
66831;DHT22;53739;44.224;22.528;2023-03-13T04:17:38;52.00;6476.80
66831;DHT22;53739;44.224;22.528;2023-03-13T04:20:04;52.00;6476.80
66831;DHT22;53739;44.224;22.528;2023-03-13T04:22:31;52.00;6476.80
66831;DHT22;53739;44.224;22.528;2023-03-13T04:24:58;52.00;6476.80
66831;DHT22;53739;44.224;22.528;2023-03-13T04:27:24;52.00;6476.80
66831;DHT22;53739;44.224;22.528;2023-03-13T04:29:49;51.90;6476.80
66831;DHT22;53739;44.224;22.528;2023-03-13T04:32:15;51.90;6476.80
66831;DHT22;53739;44.224;22.528;2023-03-13T04:34:41;51.90;6476.80
66831;DHT22;53739;44.224;22.528;2023-03-13T04:37:06;51.80;6476.80
66831;DHT22;53739;44.224;22.528;2023-03-13T04:39:32;51.80;6476.80
66831;DHT22;53739;44.224;22.528;2023-03-13T04:41:58;51.70;6476.80
66831;DHT22;53739;44.224;22.528;2023-03-13T04:44:24;51.70;6476.80
66831;DHT22;53739;44.224;22.528;2023-03-13T04:46:49;51.70;6476.80
66831;DHT22;53739;44.224;22.528;2023-03-13T04:49:15;51.80;6476.80
66831;DHT22;53739;44.224;22.528;2023-03-13T04:51:42;51.80;6476.80
66831;DHT22;53739;44.224;22.528;2023-03-13T04:54:08;51.90;6476.80
66831;DHT22;53739;44.224;22.528;2023-03-13T04:56:34;51.80;6476.80
66831;DHT22;53739;44.224;22.528;2023-03-13T04:59:00;51.80;6476.80
66831;DHT22;53739;44.224;22.528;2023-03-13T05:01:25;51.80;6476.80
66831;DHT22;53739;44.224;22.528;2023-03-13T05:03:51;51.80;6476.80
66831;DHT22;53739;44.224;22.528;2023-03-13T05:06:17;51.80;6476.80
66831;DHT22;53739;44.224;22.528;2023-03-13T05:08:43;51.80;6476.80
66831;DHT22;53739;44.224;22.528;2023-03-13T05:11:08;51.80;6476.80
66831;DHT22;53739;44.224;22.528;2023-03-13T05:13:34;51.80;6476.80
66831;DHT22;53739;44.224;22.528;2023-03-13T05:16:00;51.80;6476.80
66831;DHT22;53739;44.224;22.528;2023-03-13T05:18:26;51.90;6476.80
66831;DHT22;53739;44.224;22.528;2023-03-13T05:20:52;52.00;6476.80
66831;DHT22;53739;44.224;22.528;2023-03-13T05:23:18;52.00;6476.80
66831;DHT22;53739;44.224;22.528;2023-03-13T05:25:44;52.00;6476.80
66831;DHT22;53739;44.224;22.528;2023-03-13T05:28:09;52.00;6476.80
66831;DHT22;53739;44.224;22.528;2023-03-13T05:30:35;52.10;6476.80
66831;DHT22;53739;44.224;22.528;2023-03-13T05:33:01;52.10;6476.80
66831;DHT22;53739;44.224;22.528;2023-03-13T05:35:27;76.80;6476.80
66831;DHT22;53739;44.224;22.528;2023-03-13T05:37:52;76.80;6476.80
66831;DHT22;53739;44.224;22.528;2023-03-13T05:40:18;76.90;6476.80
66831;DHT22;53739;44.224;22.528;2023-03-13T05:42:44;76.90;6476.80
66831;DHT22;53739;44.224;22.528;2023-03-13T05:45:10;77.00;6476.80
66831;DHT22;53739;44.224;22.528;2023-03-13T05:47:36;77.10;6528.00
66831;DHT22;53739;44.224;22.528;2023-03-13T05:50:04;77.10;537.60
66831;DHT22;53739;44.224;22.528;2023-03-13T05:52:31;77.20;1049.60
66831;DHT22;53739;44.224;22.528;2023-03-13T05:54:57;77.30;665.60
66831;DHT22;53739;44.224;22.528;2023-03-13T05:57:23;77.40;716.80
66831;DHT22;53739;44.224;22.528;2023-03-13T05:59:49;77.50;6476.80
66831;DHT22;53739;44.224;22.528;2023-03-13T06:02:15;77.60;2227.20
66831;DHT22;53739;44.224;22.528;2023-03-13T06:04:41;77.70;2227.20
66831;DHT22;53739;44.224;22.528;2023-03-13T06:07:06;77.70;2227.20
66831;DHT22;53739;44.224;22.528;2023-03-13T06:09:32;102.50;2227.20
66831;DHT22;53739;44.224;22.528;2023-03-13T06:11:58;102.70;2227.20
66831;DHT22;53739;44.224;22.528;2023-03-13T06:14:24;102.90;2227.20
66831;DHT22;53739;44.224;22.528;2023-03-13T06:16:49;103.00;2227.20
66831;DHT22;53739;44.224;22.528;2023-03-13T06:19:15;102.90;2227.20
66831;DHT22;53739;44.224;22.528;2023-03-13T06:21:42;103.00;2227.20
66831;DHT22;53739;44.224;22.528;2023-03-13T06:24:08;103.10;2227.20
66831;DHT22;53739;44.224;22.528;2023-03-13T06:26:33;103.20;2227.20
66831;DHT22;53739;44.224;22.528;2023-03-13T06:28:59;103.30;2227.20
66831;DHT22;53739;44.224;22.528;2023-03-13T06:31:25;128.10;1868.80
66831;DHT22;53739;44.224;22.528;2023-03-13T06:33:54;128.40;1996.80
66831;DHT22;53739;44.224;22.528;2023-03-13T06:36:21;128.60;2252.80
66831;DHT22;53739;44.224;22.528;2023-03-13T06:38:47;128.70;2252.80
66831;DHT22;53739;44.224;22.528;2023-03-13T06:41:13;128.90;2252.80
66831;DHT22;53739;44.224;22.528;2023-03-13T06:43:39;153.70;2252.80
66831;DHT22;53739;44.224;22.528;2023-03-13T06:46:05;153.90;2252.80
66831;DHT22;53739;44.224;22.528;2023-03-13T06:48:32;154.10;2252.80
66831;DHT22;53739;44.224;22.528;2023-03-13T06:50:57;154.30;2252.80
66831;DHT22;53739;44.224;22.528;2023-03-13T06:53:23;154.50;2252.80
66831;DHT22;53739;44.224;22.528;2023-03-13T06:55:50;179.40;2252.80
66831;DHT22;53739;44.224;22.528;2023-03-13T06:58:16;179.70;2252.80
66831;DHT22;53739;44.224;22.528;2023-03-13T07:00:43;180.00;2252.80
66831;DHT22;53739;44.224;22.528;2023-03-13T07:03:09;180.10;2252.80
66831;DHT22;53739;44.224;22.528;2023-03-13T07:05:36;204.90;2252.80
66831;DHT22;53739;44.224;22.528;2023-03-13T07:08:02;205.40;2252.80
66831;DHT22;53739;44.224;22.528;2023-03-13T07:10:29;205.60;2252.80
66831;DHT22;53739;44.224;22.528;2023-03-13T07:12:55;230.40;2252.80
66831;DHT22;53739;44.224;22.528;2023-03-13T07:15:20;230.40;2252.80
66831;DHT22;53739;44.224;22.528;2023-03-13T07:17:46;230.60;2252.80
66831;DHT22;53739;44.224;22.528;2023-03-13T07:20:12;230.80;2252.80
66831;DHT22;53739;44.224;22.528;2023-03-13T07:22:38;231.10;2252.80
66831;DHT22;53739;44.224;22.528;2023-03-13T07:27:30;231.10;2252.80
66831;DHT22;53739;44.224;22.528;2023-03-13T07:32:22;256.50;2252.80
66831;DHT22;53739;44.224;22.528;2023-03-13T07:51:54;256.40;2201.60
66831;DHT22;53739;44.224;22.528;2023-03-13T07:59:13;281.90;2278.40
66831;DHT22;53739;44.224;22.528;2023-03-13T08:01:38;282.20;2278.40
66831;DHT22;53739;44.224;22.528;2023-03-13T08:04:04;282.50;2278.40
66831;DHT22;53739;44.224;22.528;2023-03-13T08:06:32;307.50;2304.00
66831;DHT22;53739;44.224;22.528;2023-03-13T08:09:00;307.50;2304.00
66831;DHT22;53739;44.224;22.528;2023-03-13T08:11:27;282.40;2278.40
66831;DHT22;53739;44.224;22.528;2023-03-13T08:13:54;282.50;2278.40
66831;DHT22;53739;44.224;22.528;2023-03-13T08:16:26;307.30;2304.00
66831;DHT22;53739;44.224;22.528;2023-03-13T08:18:53;307.40;2304.00
66831;DHT22;53739;44.224;22.528;2023-03-13T08:21:38;307.40;2304.00
66831;DHT22;53739;44.224;22.528;2023-03-13T08:24:06;307.60;2304.00
66831;DHT22;53739;44.224;22.528;2023-03-13T08:26:33;307.60;2304.00
66831;DHT22;53739;44.224;22.528;2023-03-13T08:29:08;307.70;2304.00
66831;DHT22;53739;44.224;22.528;2023-03-13T08:31:36;308.10;2304.00
66831;DHT22;53739;44.224;22.528;2023-03-13T08:34:03;332.80;2329.60
66831;DHT22;53739;44.224;22.528;2023-03-13T08:36:34;307.80;2304.00
66831;DHT22;53739;44.224;22.528;2023-03-13T08:39:06;307.60;2304.00
66831;DHT22;53739;44.224;22.528;2023-03-13T08:41:33;307.40;2304.00
66831;DHT22;53739;44.224;22.528;2023-03-13T08:44:01;307.50;2304.00
66831;DHT22;53739;44.224;22.528;2023-03-13T08:46:29;307.60;2304.00
66831;DHT22;53739;44.224;22.528;2023-03-13T08:48:55;307.80;2304.00
66831;DHT22;53739;44.224;22.528;2023-03-13T08:51:24;307.80;2304.00
66831;DHT22;53739;44.224;22.528;2023-03-13T08:53:51;307.70;2304.00
66831;DHT22;53739;44.224;22.528;2023-03-13T08:56:19;307.70;2304.00
66831;DHT22;53739;44.224;22.528;2023-03-13T08:58:50;308.10;2304.00
66831;DHT22;53739;44.224;22.528;2023-03-13T09:01:16;332.80;2329.60
66831;DHT22;53739;44.224;22.528;2023-03-13T09:03:43;333.50;2329.60
66831;DHT22;53739;44.224;22.528;2023-03-13T09:06:10;333.60;2329.60
66831;DHT22;53739;44.224;22.528;2023-03-13T09:08:37;358.50;2329.60
66831;DHT22;53739;44.224;22.528;2023-03-13T09:11:05;358.90;2329.60
66831;DHT22;53739;44.224;22.528;2023-03-13T09:13:33;358.90;2329.60
66831;DHT22;53739;44.224;22.528;2023-03-13T09:16:05;358.50;2329.60
66831;DHT22;53739;44.224;22.528;2023-03-13T09:18:31;358.50;2329.60
66831;DHT22;53739;44.224;22.528;2023-03-13T09:20:57;358.50;2329.60
66831;DHT22;53739;44.224;22.528;2023-03-13T09:23:23;333.70;2329.60
66831;DHT22;53739;44.224;22.528;2023-03-13T09:25:52;358.50;2329.60
66831;DHT22;53739;44.224;22.528;2023-03-13T09:28:17;358.80;2329.60
66831;DHT22;53739;44.224;22.528;2023-03-13T09:30:43;359.20;2329.60
66831;DHT22;53739;44.224;22.528;2023-03-13T09:33:09;358.70;2329.60
66831;DHT22;53739;44.224;22.528;2023-03-13T09:35:37;359.00;2329.60
66831;DHT22;53739;44.224;22.528;2023-03-13T09:38:03;358.80;2329.60
66831;DHT22;53739;44.224;22.528;2023-03-13T09:40:29;333.60;2329.60
66831;DHT22;53739;44.224;22.528;2023-03-13T09:42:59;333.70;2329.60
66831;DHT22;53739;44.224;22.528;2023-03-13T09:45:32;358.70;2329.60
66831;DHT22;53739;44.224;22.528;2023-03-13T09:50:36;384.00;2329.60
66831;DHT22;53739;44.224;22.528;2023-03-13T09:53:29;359.30;2329.60
66831;DHT22;53739;44.224;22.528;2023-03-13T09:55:55;358.80;2329.60
66831;DHT22;53739;44.224;22.528;2023-03-13T09:58:24;358.50;2329.60
66831;DHT22;53739;44.224;22.528;2023-03-13T10:00:57;358.80;2329.60
66831;DHT22;53739;44.224;22.528;2023-03-13T10:03:34;384.00;2329.60
66831;DHT22;53739;44.224;22.528;2023-03-13T10:06:23;384.10;2329.60
66831;DHT22;53739;44.224;22.528;2023-03-13T10:08:50;384.30;2329.60
66831;DHT22;53739;44.224;22.528;2023-03-13T10:11:24;384.00;2329.60
66831;DHT22;53739;44.224;22.528;2023-03-13T10:14:15;384.00;2329.60
66831;DHT22;53739;44.224;22.528;2023-03-13T10:16:48;384.30;2329.60
66831;DHT22;53739;44.224;22.528;2023-03-13T10:19:24;384.40;2329.60
66831;DHT22;53739;44.224;22.528;2023-03-13T10:21:52;384.70;2329.60
66831;DHT22;53739;44.224;22.528;2023-03-13T10:24:39;409.70;2355.20
66831;DHT22;53739;44.224;22.528;2023-03-13T10:27:08;384.70;2329.60
66831;DHT22;53739;44.224;22.528;2023-03-13T10:29:34;359.30;2329.60
66831;DHT22;53739;44.224;22.528;2023-03-13T10:32:02;384.00;2329.60
66831;DHT22;53739;44.224;22.528;2023-03-13T10:34:48;384.70;2329.60
66831;DHT22;53739;44.224;22.528;2023-03-13T10:37:18;384.70;2329.60
66831;DHT22;53739;44.224;22.528;2023-03-13T10:39:44;384.70;2329.60
66831;DHT22;53739;44.224;22.528;2023-03-13T10:42:18;384.90;2329.60
66831;DHT22;53739;44.224;22.528;2023-03-13T10:44:45;384.50;2329.60
66831;DHT22;53739;44.224;22.528;2023-03-13T10:47:13;384.70;2329.60
66831;DHT22;53739;44.224;22.528;2023-03-13T10:49:55;409.60;2355.20
66831;DHT22;53739;44.224;22.528;2023-03-13T10:52:42;384.80;2329.60
66831;DHT22;53739;44.224;22.528;2023-03-13T10:55:17;384.40;2329.60
66831;DHT22;53739;44.224;22.528;2023-03-13T11:00:36;384.20;2329.60
66831;DHT22;53739;44.224;22.528;2023-03-13T11:03:29;384.30;2329.60
66831;DHT22;53739;44.224;22.528;2023-03-13T11:05:59;384.80;2329.60
66831;DHT22;53739;44.224;22.528;2023-03-13T11:08:27;409.90;2355.20
66831;DHT22;53739;44.224;22.528;2023-03-13T11:11:01;409.70;2355.20
66831;DHT22;53739;44.224;22.528;2023-03-13T11:13:35;410.00;2355.20
66831;DHT22;53739;44.224;22.528;2023-03-13T11:16:10;410.30;2355.20
66831;DHT22;53739;44.224;22.528;2023-03-13T11:33:08;435.40;2355.20
66831;DHT22;53739;44.224;22.528;2023-03-13T11:35:43;435.50;2355.20
66831;DHT22;53739;44.224;22.528;2023-03-13T11:38:36;435.60;2355.20
66831;DHT22;53739;44.224;22.528;2023-03-13T11:49:50;435.80;2355.20
66831;DHT22;53739;44.224;22.528;2023-03-13T11:57:58;435.70;2355.20
66831;DHT22;53739;44.224;22.528;2023-03-13T12:00:47;435.80;2355.20
66831;DHT22;53739;44.224;22.528;2023-03-13T12:06:01;435.30;2329.60
66831;DHT22;53739;44.224;22.528;2023-03-13T12:08:47;409.90;2355.20
66831;DHT22;53739;44.224;22.528;2023-03-13T12:11:52;410.20;2355.20
66831;DHT22;53739;44.224;22.528;2023-03-13T12:14:26;410.50;2355.20
66831;DHT22;53739;44.224;22.528;2023-03-13T12:17:01;435.30;2355.20
66831;DHT22;53739;44.224;22.528;2023-03-13T12:22:24;435.50;2355.20
66831;DHT22;53739;44.224;22.528;2023-03-13T12:25:04;435.30;2355.20
66831;DHT22;53739;44.224;22.528;2023-03-13T12:27:34;435.50;2355.20
66831;DHT22;53739;44.224;22.528;2023-03-13T12:30:18;435.30;2355.20
66831;DHT22;53739;44.224;22.528;2023-03-13T12:35:25;435.20;2355.20
66831;DHT22;53739;44.224;22.528;2023-03-13T12:41:18;435.40;2355.20
66831;DHT22;53739;44.224;22.528;2023-03-13T12:43:48;435.20;2355.20
66831;DHT22;53739;44.224;22.528;2023-03-13T12:49:24;410.40;2355.20
66831;DHT22;53739;44.224;22.528;2023-03-13T12:54:39;410.40;2355.20
66831;DHT22;53739;44.224;22.528;2023-03-13T12:59:56;384.90;2329.60
66831;DHT22;53739;44.224;22.528;2023-03-13T13:02:28;410.00;2355.20
66831;DHT22;53739;44.224;22.528;2023-03-13T13:04:58;410.10;2355.20
66831;DHT22;53739;44.224;22.528;2023-03-13T13:12:35;409.90;2355.20
66831;DHT22;53739;44.224;22.528;2023-03-13T13:15:15;410.00;2355.20
66831;DHT22;53739;44.224;22.528;2023-03-13T13:22:55;409.70;2355.20
66831;DHT22;53739;44.224;22.528;2023-03-13T13:25:32;384.90;2329.60
66831;DHT22;53739;44.224;22.528;2023-03-13T13:28:22;384.90;2329.60
66831;DHT22;53739;44.224;22.528;2023-03-13T13:30:49;384.70;2329.60
66831;DHT22;53739;44.224;22.528;2023-03-13T13:38:40;384.00;2329.60
66831;DHT22;53739;44.224;22.528;2023-03-13T13:43:46;384.20;2329.60
66831;DHT22;53739;44.224;22.528;2023-03-13T13:57:15;384.00;2329.60
66831;DHT22;53739;44.224;22.528;2023-03-13T13:59:47;359.30;2329.60
66831;DHT22;53739;44.224;22.528;2023-03-13T14:02:23;359.30;2329.60
66831;DHT22;53739;44.224;22.528;2023-03-13T14:05:16;384.10;2329.60
66831;DHT22;53739;44.224;22.528;2023-03-13T14:07:54;384.20;2329.60
66831;DHT22;53739;44.224;22.528;2023-03-13T14:11:13;384.10;2329.60
66831;DHT22;53739;44.224;22.528;2023-03-13T14:13:29;384.20;2329.60
66831;DHT22;53739;44.224;22.528;2023-03-13T14:15:55;384.10;2329.60
66831;DHT22;53739;44.224;22.528;2023-03-13T14:23:14;384.00;2329.60
66831;DHT22;53739;44.224;22.528;2023-03-13T14:25:52;359.30;2329.60
66831;DHT22;53739;44.224;22.528;2023-03-13T14:28:26;359.30;2329.60
66831;DHT22;53739;44.224;22.528;2023-03-13T14:30:55;359.30;2329.60
66831;DHT22;53739;44.224;22.528;2023-03-13T14:33:22;359.30;2329.60
66831;DHT22;53739;44.224;22.528;2023-03-13T14:35:48;359.30;2329.60
66831;DHT22;53739;44.224;22.528;2023-03-13T14:38:22;359.20;2329.60
66831;DHT22;53739;44.224;22.528;2023-03-13T14:40:50;359.20;2329.60
66831;DHT22;53739;44.224;22.528;2023-03-13T14:43:29;359.20;2329.60
66831;DHT22;53739;44.224;22.528;2023-03-13T14:45:55;359.20;2329.60
66831;DHT22;53739;44.224;22.528;2023-03-13T14:51:01;359.10;2329.60
66831;DHT22;53739;44.224;22.528;2023-03-13T14:53:27;358.80;2329.60
66831;DHT22;53739;44.224;22.528;2023-03-13T14:56:14;358.80;2329.60
66831;DHT22;53739;44.224;22.528;2023-03-13T14:58:44;358.80;2329.60
66831;DHT22;53739;44.224;22.528;2023-03-13T15:01:24;358.70;2329.60
66831;DHT22;53739;44.224;22.528;2023-03-13T15:03:50;358.60;2329.60
66831;DHT22;53739;44.224;22.528;2023-03-13T15:06:24;358.50;2329.60
66831;DHT22;53739;44.224;22.528;2023-03-13T15:11:40;333.70;2329.60
66831;DHT22;53739;44.224;22.528;2023-03-13T15:14:41;333.70;2329.60
66831;DHT22;53739;44.224;22.528;2023-03-13T15:17:26;333.60;2329.60
66831;DHT22;53739;44.224;22.528;2023-03-13T15:19:55;333.50;2329.60
66831;DHT22;53739;44.224;22.528;2023-03-13T15:22:28;333.60;2329.60
66831;DHT22;53739;44.224;22.528;2023-03-13T15:24:55;333.60;2329.60
66831;DHT22;53739;44.224;22.528;2023-03-13T15:27:22;333.50;2329.60
66831;DHT22;53739;44.224;22.528;2023-03-13T15:29:48;333.40;2329.60
66831;DHT22;53739;44.224;22.528;2023-03-13T15:32:35;333.40;2329.60
66831;DHT22;53739;44.224;22.528;2023-03-13T15:35:06;333.40;2329.60
66831;DHT22;53739;44.224;22.528;2023-03-13T15:37:36;333.30;2329.60
66831;DHT22;53739;44.224;22.528;2023-03-13T15:40:05;333.20;2329.60
66831;DHT22;53739;44.224;22.528;2023-03-13T15:42:32;333.20;2329.60
66831;DHT22;53739;44.224;22.528;2023-03-13T15:44:57;333.20;2329.60
66831;DHT22;53739;44.224;22.528;2023-03-13T15:47:25;333.20;2329.60
66831;DHT22;53739;44.224;22.528;2023-03-13T15:49:50;333.10;2329.60
66831;DHT22;53739;44.224;22.528;2023-03-13T15:52:19;333.00;2329.60
66831;DHT22;53739;44.224;22.528;2023-03-13T15:54:48;333.00;2329.60
66831;DHT22;53739;44.224;22.528;2023-03-13T15:57:15;332.90;2329.60
66831;DHT22;53739;44.224;22.528;2023-03-13T15:59:41;332.80;2329.60
66831;DHT22;53739;44.224;22.528;2023-03-13T16:02:16;332.80;2329.60
66831;DHT22;53739;44.224;22.528;2023-03-13T16:04:43;332.80;2329.60
66831;DHT22;53739;44.224;22.528;2023-03-13T16:07:14;308.10;2304.00
66831;DHT22;53739;44.224;22.528;2023-03-13T16:09:41;308.10;2304.00
66831;DHT22;53739;44.224;22.528;2023-03-13T16:12:07;308.10;2304.00
66831;DHT22;53739;44.224;22.528;2023-03-13T16:14:34;308.00;2304.00
66831;DHT22;53739;44.224;22.528;2023-03-13T16:17:09;307.90;2304.00
66831;DHT22;53739;44.224;22.528;2023-03-13T16:19:36;307.90;2304.00
66831;DHT22;53739;44.224;22.528;2023-03-13T16:22:02;307.80;2304.00
66831;DHT22;53739;44.224;22.528;2023-03-13T16:24:27;307.70;2304.00
66831;DHT22;53739;44.224;22.528;2023-03-13T16:26:53;307.70;2304.00
66831;DHT22;53739;44.224;22.528;2023-03-13T16:29:19;307.60;2304.00
66831;DHT22;53739;44.224;22.528;2023-03-13T16:31:45;307.60;2304.00
66831;DHT22;53739;44.224;22.528;2023-03-13T16:34:10;307.50;2304.00
66831;DHT22;53739;44.224;22.528;2023-03-13T16:36:36;307.40;2304.00
66831;DHT22;53739;44.224;22.528;2023-03-13T16:39:07;307.30;2304.00
66831;DHT22;53739;44.224;22.528;2023-03-13T16:41:35;307.20;2304.00
66831;DHT22;53739;44.224;22.528;2023-03-13T16:44:02;282.50;2278.40
66831;DHT22;53739;44.224;22.528;2023-03-13T16:46:38;282.50;2278.40
66831;DHT22;53739;44.224;22.528;2023-03-13T16:49:05;282.40;2278.40
66831;DHT22;53739;44.224;22.528;2023-03-13T16:51:32;282.40;2278.40
66831;DHT22;53739;44.224;22.528;2023-03-13T16:53:58;282.30;2278.40
66831;DHT22;53739;44.224;22.528;2023-03-13T16:56:38;282.20;2278.40
66831;DHT22;53739;44.224;22.528;2023-03-13T16:59:06;282.20;2278.40
66831;DHT22;53739;44.224;22.528;2023-03-13T17:01:32;282.10;2278.40
66831;DHT22;53739;44.224;22.528;2023-03-13T17:03:58;282.00;2278.40